createdAt,value
2023-03-18T00:00:17.749Z,6.25
2023-03-18T00:02:45.724Z,6.13
2023-03-18T00:05:13.265Z,6.22
2023-03-18T00:07:40.637Z,6.05
2023-03-18T00:10:10.381Z,6.17
2023-03-18T00:12:38.987Z,6.35
2023-03-18T00:15:08.341Z,6.42
2023-03-18T00:17:35.650Z,6.27
2023-03-18T00:20:06.846Z,6.40
2023-03-18T00:22:37.701Z,6.39
2023-03-18T00:25:07.171Z,6.38
2023-03-18T00:27:34.944Z,6.23
2023-03-18T00:30:03.859Z,6.38
2023-03-18T00:32:30.658Z,6.53
2023-03-18T00:34:58.025Z,6.51
2023-03-18T00:37:31.696Z,6.38
2023-03-18T00:40:06.358Z,6.49
2023-03-18T00:42:40.154Z,6.57
2023-03-18T00:45:08.813Z,6.43
2023-03-18T00:47:36.004Z,6.03
2023-03-18T00:50:03.363Z,6.33
2023-03-18T00:52:32.317Z,6.38
2023-03-18T00:55:00.189Z,6.20
2023-03-18T00:57:28.634Z,6.20
2023-03-18T00:59:56.055Z,6.13
2023-03-18T01:02:23.782Z,5.86
2023-03-18T01:04:51.473Z,6.23
2023-03-18T01:07:18.191Z,6.10
2023-03-18T01:09:44.998Z,6.04
2023-03-18T01:12:12.549Z,6.34
2023-03-18T01:14:40.336Z,6.20
2023-03-18T01:17:08.636Z,6.10
2023-03-18T01:22:30.652Z,6.09
2023-03-18T01:24:57.692Z,6.22
2023-03-18T01:27:24.828Z,6.20
2023-03-18T01:29:51.956Z,6.00
2023-03-18T01:32:18.639Z,6.11
2023-03-18T01:34:45.290Z,5.97
2023-03-18T01:37:12.051Z,5.97
2023-03-18T01:39:39.402Z,5.77
2023-03-18T01:42:06.532Z,5.87
2023-03-18T01:44:33.277Z,5.92
2023-03-18T01:46:59.950Z,6.00
2023-03-18T01:49:26.544Z,5.92
2023-03-18T01:52:00.583Z,5.99
2023-03-18T01:54:30.581Z,5.86
2023-03-18T01:56:57.762Z,5.63
2023-03-18T01:59:28.946Z,5.56
2023-03-18T02:02:01.350Z,5.48
2023-03-18T02:04:34.745Z,5.14
2023-03-18T02:07:01.501Z,5.26
2023-03-18T02:09:29.714Z,5.06
2023-03-18T02:11:57.002Z,5.17
2023-03-18T02:14:26.746Z,5.14
2023-03-18T02:17:17.960Z,5.18
2023-03-18T02:20:19.274Z,5.05
2023-03-18T02:22:52.210Z,5.23
2023-03-18T02:25:22.003Z,5.09
2023-03-18T02:27:56.280Z,4.89
2023-03-18T02:30:32.180Z,5.13
2023-03-18T02:33:00.462Z,5.18
2023-03-18T02:35:29.201Z,4.89
2023-03-18T02:37:56.044Z,4.59
2023-03-18T02:40:33.506Z,4.41
2023-03-18T02:43:26.332Z,4.45
2023-03-18T02:46:09.543Z,4.58
2023-03-18T02:48:40.325Z,4.26
2023-03-18T02:51:09.103Z,4.10
2023-03-18T02:53:36.574Z,4.11
2023-03-18T02:56:04.806Z,4.06
2023-03-18T02:58:32.371Z,3.76
2023-03-18T03:00:59.156Z,3.80
2023-03-18T03:03:26.703Z,3.89
2023-03-18T03:05:53.986Z,3.84
2023-03-18T03:08:21.274Z,3.94
2023-03-18T03:10:47.989Z,3.79
2023-03-18T03:13:14.670Z,3.88
2023-03-18T03:15:41.892Z,4.15
2023-03-18T03:18:08.960Z,4.28
2023-03-18T03:20:37.698Z,4.51
2023-03-18T03:23:06.957Z,4.67
2023-03-18T03:25:34.222Z,4.61
2023-03-18T03:28:00.874Z,4.49
2023-03-18T03:30:28.732Z,4.55
2023-03-18T03:32:56.118Z,4.61
2023-03-18T03:35:24.271Z,4.31
2023-03-18T03:37:51.690Z,4.52
2023-03-18T03:40:20.550Z,4.26
2023-03-18T03:42:49.280Z,4.03
2023-03-18T03:45:18.290Z,4.01
2023-03-18T03:47:49.037Z,4.03
2023-03-18T03:50:18.055Z,4.17
2023-03-18T03:52:45.522Z,4.27
2023-03-18T03:55:14.914Z,4.31
2023-03-18T03:57:42.037Z,4.33
2023-03-18T04:00:16.647Z,4.39
2023-03-18T04:02:44.997Z,4.61
2023-03-18T04:05:13.559Z,4.71
2023-03-18T04:07:41.472Z,4.74
2023-03-18T04:10:10.930Z,4.54
2023-03-18T04:12:39.154Z,4.30
2023-03-18T04:15:07.768Z,4.36
2023-03-18T04:17:35.725Z,4.19
2023-03-18T04:20:03.475Z,4.14
2023-03-18T04:22:30.761Z,4.08
2023-03-18T04:24:57.442Z,3.87
2023-03-18T04:27:25.416Z,3.91
2023-03-18T04:29:52.096Z,3.92
2023-03-18T04:32:18.786Z,4.10
2023-03-18T04:34:45.464Z,3.85
2023-03-18T04:37:14.481Z,4.00
2023-03-18T04:39:42.015Z,4.14
2023-03-18T04:42:08.692Z,4.09
2023-03-18T04:44:35.817Z,4.36
2023-03-18T04:47:02.504Z,4.46
2023-03-18T04:49:29.250Z,4.60
2023-03-18T04:51:56.403Z,4.66
2023-03-18T04:54:23.240Z,4.63
2023-03-18T04:56:49.997Z,4.65
2023-03-18T04:59:18.250Z,4.74
2023-03-18T05:01:45.013Z,4.70
2023-03-18T05:04:11.830Z,4.79
2023-03-18T05:06:38.624Z,4.96
2023-03-18T05:09:05.919Z,4.98
2023-03-18T05:11:33.167Z,5.14
2023-03-18T05:13:59.930Z,5.04
2023-03-18T05:16:26.675Z,5.12
2023-03-18T05:18:53.466Z,5.27
2023-03-18T05:21:20.428Z,5.21
2023-03-18T05:23:47.306Z,5.36
2023-03-18T05:26:14.015Z,5.26
2023-03-18T05:28:40.766Z,5.31
2023-03-18T05:31:07.601Z,5.32
2023-03-18T05:33:34.355Z,5.60
2023-03-18T05:36:01.113Z,5.74
2023-03-18T05:38:27.861Z,6.03
2023-03-18T05:40:55.449Z,5.93
2023-03-18T05:43:23.274Z,6.06
2023-03-18T05:45:50.354Z,6.22
2023-03-18T05:48:17.767Z,6.54
2023-03-18T05:50:44.567Z,6.63
2023-03-18T05:53:16.341Z,6.67
2023-03-18T05:55:43.669Z,6.73
2023-03-18T05:58:11.827Z,6.88
2023-03-18T06:00:38.768Z,7.08
2023-03-18T06:03:05.694Z,7.72
2023-03-18T06:05:32.680Z,7.56
2023-03-18T06:08:01.364Z,7.49
2023-03-18T06:10:29.100Z,7.44
2023-03-18T06:12:55.874Z,7.54
2023-03-18T06:15:23.375Z,7.59
2023-03-18T06:17:50.415Z,7.72
2023-03-18T06:20:19.612Z,7.94
2023-03-18T06:22:49.992Z,7.82
2023-03-18T06:25:21.731Z,7.84
2023-03-18T06:27:48.456Z,7.28
2023-03-18T06:30:16.949Z,6.99
2023-03-18T06:32:44.418Z,6.72
2023-03-18T06:35:11.976Z,6.57
2023-03-18T06:37:40.184Z,6.40
2023-03-18T06:40:08.133Z,6.37
2023-03-18T06:42:35.457Z,6.52
2023-03-18T06:45:02.863Z,6.60
2023-03-18T06:47:29.917Z,6.73
2023-03-18T06:49:56.959Z,6.82
2023-03-18T06:52:24.151Z,7.08
2023-03-18T06:54:51.803Z,7.26
2023-03-18T06:57:18.712Z,7.54
2023-03-18T06:59:45.803Z,7.70
2023-03-18T07:02:12.886Z,7.76
2023-03-18T07:04:39.989Z,7.78
2023-03-18T07:07:07.301Z,8.07
2023-03-18T07:09:34.127Z,8.34
2023-03-18T07:12:01.251Z,8.71
2023-03-18T07:14:28.728Z,9.09
2023-03-18T07:16:56.133Z,8.98
2023-03-18T07:19:23.230Z,8.85
2023-03-18T07:21:50.349Z,9.21
2023-03-18T07:24:17.351Z,9.06
2023-03-18T07:26:44.037Z,8.89
2023-03-18T07:29:10.758Z,9.26
2023-03-18T07:31:37.559Z,9.30
2023-03-18T07:34:05.184Z,9.71
2023-03-18T07:36:31.985Z,9.81
2023-03-18T07:39:00.063Z,9.99
2023-03-18T07:41:26.931Z,10.14
2023-03-18T07:43:53.770Z,9.70
2023-03-18T07:46:20.590Z,9.70
2023-03-18T07:48:48.044Z,9.64
2023-03-18T07:51:15.613Z,9.88
2023-03-18T07:53:43.120Z,9.59
2023-03-18T07:56:12.815Z,9.90
2023-03-18T07:58:39.479Z,9.77
2023-03-18T08:01:06.425Z,10.09
2023-03-18T08:03:33.972Z,11.08
2023-03-18T08:06:01.171Z,10.91
2023-03-18T08:08:28.889Z,11.04
2023-03-18T08:11:00.499Z,11.74
2023-03-18T08:13:27.587Z,12.01
2023-03-18T08:15:56.244Z,11.74
2023-03-18T08:18:24.024Z,11.09
2023-03-18T08:20:50.734Z,11.82
2023-03-18T08:23:17.538Z,12.63
2023-03-18T08:25:49.649Z,12.81
2023-03-18T08:28:16.915Z,12.19
2023-03-18T08:30:44.448Z,12.24
2023-03-18T08:33:14.168Z,11.80
2023-03-18T08:35:42.616Z,11.97
2023-03-18T08:38:10.001Z,12.48
2023-03-18T08:40:36.721Z,12.56
2023-03-18T08:43:03.448Z,13.01
2023-03-18T08:45:30.105Z,13.54
2023-03-18T08:47:56.799Z,14.17
2023-03-18T08:50:28.496Z,12.84
2023-03-18T08:53:00.160Z,12.59
2023-03-18T08:55:32.495Z,12.69
2023-03-18T08:57:59.307Z,12.09
2023-03-18T09:00:27.758Z,12.06
2023-03-18T09:02:54.515Z,12.12
2023-03-18T09:05:21.290Z,12.25
2023-03-18T09:07:48.140Z,12.66
2023-03-18T09:10:17.254Z,12.29
2023-03-18T09:12:45.499Z,12.83
2023-03-18T09:15:20.243Z,11.91
2023-03-18T09:18:03.944Z,12.55
2023-03-18T09:20:33.924Z,12.54
2023-03-18T09:23:00.942Z,12.74
2023-03-18T09:25:27.928Z,12.99
2023-03-18T09:27:54.579Z,12.77
2023-03-18T09:30:21.380Z,14.11
2023-03-18T09:32:48.925Z,12.75
2023-03-18T09:35:16.532Z,13.38
2023-03-18T09:37:44.700Z,13.40
2023-03-18T09:40:32.906Z,13.02
2023-03-18T09:43:32.952Z,12.71
2023-03-18T09:46:18.226Z,12.89
2023-03-18T09:49:12.581Z,13.75
2023-03-18T09:51:54.255Z,13.26
2023-03-18T09:54:33.980Z,13.48
2023-03-18T09:57:01.253Z,13.49
2023-03-18T09:59:39.466Z,13.69
2023-03-18T10:02:45.616Z,13.39
2023-03-18T10:05:21.746Z,13.53
2023-03-18T10:07:52.900Z,13.64
2023-03-18T10:10:36.382Z,13.51
2023-03-18T10:13:27.753Z,13.46
2023-03-18T10:15:56.932Z,13.59
2023-03-18T10:18:35.804Z,14.12
2023-03-18T10:21:23.542Z,13.73
2023-03-18T10:24:11.974Z,13.15
2023-03-18T10:26:45.386Z,14.17
2023-03-18T10:29:37.446Z,14.04
2023-03-18T10:32:33.254Z,13.53
2023-03-18T10:35:42.910Z,12.91
2023-03-18T10:38:30.870Z,13.90
2023-03-18T10:40:58.420Z,14.21
2023-03-18T10:43:33.986Z,14.21
2023-03-18T10:46:03.821Z,14.15
2023-03-18T10:48:35.420Z,13.57
2023-03-18T10:51:37.190Z,12.79
2023-03-18T10:54:10.992Z,13.45
2023-03-18T10:56:38.014Z,13.34
2023-03-18T10:59:13.482Z,13.02
2023-03-18T11:01:41.719Z,13.67
2023-03-18T11:04:14.932Z,13.16
2023-03-18T11:07:00.685Z,13.90
2023-03-18T11:09:36.483Z,13.66
2023-03-18T11:12:14.267Z,13.46
2023-03-18T11:14:42.335Z,13.50
2023-03-18T11:17:31.781Z,13.57
2023-03-18T11:20:01.570Z,14.00
2023-03-18T11:22:30.115Z,14.07
2023-03-18T11:25:16.832Z,13.94
2023-03-18T11:27:48.229Z,13.83
2023-03-18T11:30:32.748Z,13.81
2023-03-18T11:33:14.623Z,13.92
2023-03-18T11:35:44.294Z,13.88
2023-03-18T11:38:21.884Z,14.33
2023-03-18T11:40:48.780Z,14.43
2023-03-18T11:43:23.625Z,13.91
2023-03-18T11:45:52.975Z,13.90
2023-03-18T11:48:38.973Z,14.72
2023-03-18T11:51:26.912Z,15.56
2023-03-18T11:54:02.978Z,15.31
2023-03-18T11:56:47.465Z,14.91
2023-03-18T11:59:45.518Z,14.59
2023-03-18T12:02:45.452Z,14.72
2023-03-18T12:05:52.014Z,15.36
2023-03-18T12:08:18.632Z,14.98
2023-03-18T12:11:06.562Z,14.55
2023-03-18T12:14:12.535Z,14.47
2023-03-18T12:16:59.155Z,14.48
2023-03-18T12:20:06.966Z,14.24
2023-03-18T12:23:18.904Z,14.34
2023-03-18T12:26:00.244Z,14.70
2023-03-18T12:28:37.273Z,14.55
2023-03-18T12:31:04.522Z,14.07
2023-03-18T12:33:56.871Z,14.52
2023-03-18T12:36:35.891Z,14.35
2023-03-18T12:39:20.004Z,14.23
2023-03-18T12:42:09.321Z,13.55
2023-03-18T12:45:10.255Z,13.48
2023-03-18T12:47:43.975Z,13.11
2023-03-18T12:50:23.057Z,12.72
2023-03-18T12:52:56.608Z,12.45
2023-03-18T12:55:31.687Z,12.90
2023-03-18T12:58:11.964Z,13.04
2023-03-18T13:00:43.463Z,12.93
2023-03-18T13:03:32.579Z,13.34
2023-03-18T13:06:14.439Z,13.63
2023-03-18T13:08:50.291Z,13.89
2023-03-18T13:11:39.645Z,14.21
2023-03-18T13:14:30.056Z,14.77
2023-03-18T13:16:58.907Z,14.41
2023-03-18T13:19:25.835Z,14.72
2023-03-18T13:22:02.983Z,14.78
2023-03-18T13:24:35.480Z,15.36
2023-03-18T13:27:12.506Z,15.11
2023-03-18T13:30:06.547Z,15.46
2023-03-18T13:32:50.961Z,15.02
2023-03-18T13:35:32.569Z,14.54
2023-03-18T13:38:32.614Z,14.18
2023-03-18T13:41:34.522Z,14.09
2023-03-18T13:44:10.603Z,13.85
2023-03-18T13:46:37.756Z,13.64
2023-03-18T13:49:04.900Z,13.72
2023-03-18T13:51:34.440Z,13.14
2023-03-18T13:54:08.801Z,13.36
2023-03-18T13:56:42.783Z,12.96
2023-03-18T13:59:34.324Z,12.73
2023-03-18T14:02:31.948Z,13.24
2023-03-18T14:04:59.945Z,13.10
2023-03-18T14:07:27.646Z,12.59
2023-03-18T14:09:57.120Z,12.66
2023-03-18T14:12:30.925Z,12.71
2023-03-18T14:15:21.508Z,12.65
2023-03-18T14:17:55.638Z,12.35
2023-03-18T14:20:43.114Z,12.50
2023-03-18T14:23:43.479Z,12.41
2023-03-18T14:26:24.752Z,12.58
2023-03-18T14:28:57.671Z,12.74
2023-03-18T14:31:35.318Z,12.66
2023-03-18T14:34:14.897Z,12.54
2023-03-18T14:36:53.935Z,12.73
2023-03-18T14:39:43.306Z,12.38
2023-03-18T14:42:25.210Z,12.38
2023-03-18T14:45:00.570Z,12.51
2023-03-18T14:47:43.500Z,12.23
2023-03-18T14:50:15.279Z,12.15
2023-03-18T14:52:48.806Z,12.06
2023-03-18T14:55:21.556Z,11.85
2023-03-18T14:57:48.218Z,11.97
2023-03-18T15:00:21.728Z,11.86
2023-03-18T15:02:52.956Z,11.85
2023-03-18T15:05:22.859Z,11.98
2023-03-18T15:07:53.671Z,12.07
2023-03-18T15:10:29.756Z,11.98
2023-03-18T15:13:07.739Z,12.05
2023-03-18T15:15:36.066Z,12.09
2023-03-18T15:18:24.445Z,12.00
2023-03-18T15:20:57.748Z,12.07
2023-03-18T15:23:52.409Z,12.04
2023-03-18T15:26:21.678Z,11.94
2023-03-18T15:28:53.258Z,11.85
2023-03-18T15:31:38.231Z,11.60
2023-03-18T15:34:16.750Z,11.53
2023-03-18T15:36:46.188Z,11.60
2023-03-18T15:39:22.583Z,11.51
2023-03-18T15:41:54.305Z,11.52
2023-03-18T15:44:28.928Z,11.48
2023-03-18T15:47:03.165Z,11.28
2023-03-18T15:49:29.788Z,11.43
2023-03-18T15:52:01.866Z,11.28
2023-03-18T15:54:37.487Z,11.24
2023-03-18T15:57:13.638Z,11.21
2023-03-18T15:59:40.311Z,11.19
2023-03-18T16:02:14.491Z,11.17
2023-03-18T16:04:44.299Z,11.14
2023-03-18T16:07:19.113Z,11.21
2023-03-18T16:09:45.954Z,11.34
2023-03-18T16:12:20.760Z,11.15
2023-03-18T16:14:50.308Z,11.21
2023-03-18T16:17:21.662Z,11.02
2023-03-18T16:19:53.887Z,10.93
2023-03-18T16:22:20.793Z,10.92
2023-03-18T16:24:47.639Z,10.84
2023-03-18T16:27:43.458Z,10.81
2023-03-18T16:30:22.684Z,10.71
2023-03-18T16:32:50.574Z,10.59
2023-03-18T16:35:20.552Z,10.55
2023-03-18T16:37:48.719Z,10.60
2023-03-18T16:40:24.108Z,10.44
2023-03-18T16:42:52.668Z,10.41
2023-03-18T16:45:24.036Z,10.04
2023-03-18T16:47:52.036Z,9.63
2023-03-18T16:50:25.318Z,9.45
2023-03-18T16:52:52.015Z,9.31
2023-03-18T16:55:19.563Z,9.13
2023-03-18T16:57:55.488Z,9.09
2023-03-18T17:00:31.856Z,9.06
2023-03-18T17:03:02.009Z,9.05
2023-03-18T17:05:28.888Z,8.88
2023-03-18T17:07:55.924Z,8.85
2023-03-18T17:10:26.286Z,8.89
2023-03-18T17:12:57.754Z,8.95
2023-03-18T17:15:29.691Z,9.05
2023-03-18T17:17:59.649Z,9.09
2023-03-18T17:20:28.897Z,9.05
2023-03-18T17:22:55.826Z,8.96
2023-03-18T17:25:27.222Z,9.08
2023-03-18T17:27:59.463Z,9.13
2023-03-18T17:30:34.221Z,9.10
2023-03-18T17:33:02.775Z,9.07
2023-03-18T17:35:29.644Z,8.97
2023-03-18T17:37:56.846Z,8.88
2023-03-18T17:40:26.370Z,8.94
2023-03-18T17:42:53.938Z,8.97
2023-03-18T17:45:33.034Z,8.89
2023-03-18T17:48:21.912Z,8.88
2023-03-18T17:50:51.764Z,9.02
2023-03-18T17:53:28.122Z,8.94
2023-03-18T17:55:56.012Z,8.95
2023-03-18T17:58:26.138Z,8.93
2023-03-18T18:00:54.220Z,8.88
2023-03-18T18:03:26.833Z,8.94
2023-03-18T18:05:55.535Z,8.99
2023-03-18T18:08:25.499Z,8.94
2023-03-18T18:10:54.355Z,8.95
2023-03-18T18:13:23.098Z,8.96
2023-03-18T18:15:51.171Z,8.96
2023-03-18T18:18:26.765Z,8.89
2023-03-18T18:21:01.771Z,8.87
2023-03-18T18:23:34.068Z,8.97
2023-03-18T18:26:04.620Z,8.97
2023-03-18T18:28:34.185Z,9.03
2023-03-18T18:31:02.671Z,8.89
2023-03-18T18:33:30.486Z,8.91
2023-03-18T18:35:57.841Z,8.81
2023-03-18T18:38:28.459Z,8.81
2023-03-18T18:40:57.504Z,8.79
2023-03-18T18:43:25.816Z,8.81
2023-03-18T18:45:54.302Z,8.70
2023-03-18T18:48:27.030Z,8.76
2023-03-18T18:50:53.696Z,8.78
2023-03-18T18:53:32.314Z,8.75
2023-03-18T18:56:02.621Z,8.62
2023-03-18T18:58:32.648Z,8.67
2023-03-18T19:00:59.939Z,8.59
2023-03-18T19:03:31.978Z,8.48
2023-03-18T19:06:01.522Z,8.50
2023-03-18T19:08:36.325Z,8.49
2023-03-18T19:11:07.830Z,8.49
2023-03-18T19:13:36.264Z,8.48
2023-03-18T19:16:17.034Z,8.55
2023-03-18T19:18:44.119Z,8.56
2023-03-18T19:21:11.245Z,8.53
2023-03-18T19:23:38.756Z,8.53
2023-03-18T19:26:06.315Z,8.49
2023-03-18T19:28:57.073Z,8.52
2023-03-18T19:31:30.879Z,8.46
2023-03-18T19:33:59.759Z,8.50
2023-03-18T19:36:30.494Z,8.53
2023-03-18T19:38:59.468Z,8.68
2023-03-18T19:41:26.875Z,8.57
2023-03-18T19:43:58.196Z,8.51
2023-03-18T19:46:38.790Z,8.71
2023-03-18T19:49:24.940Z,8.69
2023-03-18T19:54:47.121Z,8.58
2023-03-18T19:57:16.208Z,8.41
2023-03-18T19:59:44.818Z,8.47
2023-03-18T20:02:17.412Z,8.51
2023-03-18T20:04:44.175Z,8.51
2023-03-18T20:07:11.092Z,8.45
2023-03-18T20:09:37.837Z,8.60
2023-03-18T20:12:05.929Z,8.61
2023-03-18T20:14:38.372Z,8.66
2023-03-18T20:17:26.317Z,8.58
2023-03-18T20:19:53.012Z,8.46
2023-03-18T20:22:33.656Z,8.44
2023-03-18T20:25:02.308Z,8.48
2023-03-18T20:27:30.185Z,8.43
2023-03-18T20:29:57.774Z,8.59
2023-03-18T20:32:44.466Z,8.74
2023-03-18T20:35:11.295Z,8.80
2023-03-18T20:37:37.989Z,8.79
2023-03-18T20:40:11.313Z,8.69
2023-03-18T20:42:37.995Z,8.65
2023-03-18T20:45:15.424Z,8.64
2023-03-18T20:47:43.421Z,8.50
2023-03-18T20:50:14.042Z,8.37
2023-03-18T20:52:43.959Z,8.43
2023-03-18T20:55:25.616Z,8.38
2023-03-18T20:57:53.324Z,8.48
2023-03-18T21:00:25.125Z,8.45
2023-03-18T21:02:54.527Z,8.52
2023-03-18T21:05:21.887Z,8.56
2023-03-18T21:07:49.152Z,8.33
2023-03-18T21:10:24.864Z,8.59
2023-03-18T21:12:51.783Z,8.51
2023-03-18T21:15:22.449Z,8.48
2023-03-18T21:17:50.062Z,8.74
2023-03-18T21:20:24.949Z,8.87
2023-03-18T21:22:52.945Z,8.88
2023-03-18T21:25:24.757Z,8.82
2023-03-18T21:27:51.687Z,8.64
2023-03-18T21:30:21.549Z,8.68
2023-03-18T21:32:50.480Z,8.45
2023-03-18T21:35:25.778Z,8.51
2023-03-18T21:37:53.166Z,8.58
2023-03-18T21:40:25.037Z,8.46
2023-03-18T21:42:52.402Z,8.45
2023-03-18T21:45:21.667Z,8.25
2023-03-18T21:47:48.380Z,8.16
2023-03-18T21:50:26.323Z,8.29
2023-03-18T21:52:54.399Z,8.31
2023-03-18T21:55:21.723Z,8.19
2023-03-18T21:57:49.303Z,8.27
2023-03-18T22:00:20.237Z,8.11
2023-03-18T22:02:48.137Z,8.20
2023-03-18T22:05:21.860Z,8.30
2023-03-18T22:07:50.591Z,7.99
2023-03-18T22:10:19.986Z,7.97
2023-03-18T22:12:46.802Z,8.10
2023-03-18T22:15:38.609Z,7.97
2023-03-18T22:18:07.302Z,7.95
2023-03-18T22:20:35.372Z,8.03
2023-03-18T22:23:11.860Z,8.00
2023-03-18T22:25:39.084Z,8.03
2023-03-18T22:28:05.964Z,8.14
2023-03-18T22:30:34.536Z,8.17
2023-03-18T22:33:03.859Z,8.17
2023-03-18T22:35:30.832Z,8.13
2023-03-18T22:37:57.934Z,8.20
2023-03-18T22:40:30.868Z,8.14
2023-03-18T22:43:00.129Z,8.06
2023-03-18T22:45:32.740Z,8.03
2023-03-18T22:48:02.212Z,8.11
2023-03-18T22:50:32.270Z,8.14
2023-03-18T22:53:05.633Z,8.12
2023-03-18T22:55:36.330Z,8.24
2023-03-18T22:58:03.501Z,8.33
2023-03-18T23:00:36.833Z,8.25
2023-03-18T23:03:09.516Z,8.23
2023-03-18T23:05:36.134Z,8.33
2023-03-18T23:08:03.081Z,8.24
2023-03-18T23:10:29.779Z,8.33
2023-03-18T23:12:56.434Z,8.42
2023-03-18T23:15:23.358Z,8.36
2023-03-18T23:17:50.094Z,8.42
2023-03-18T23:20:18.456Z,8.40
2023-03-18T23:22:45.849Z,8.26
2023-03-18T23:25:16.582Z,8.26
2023-03-18T23:27:44.702Z,8.19
2023-03-18T23:30:13.336Z,8.30
2023-03-18T23:32:41.120Z,8.24
2023-03-18T23:35:09.072Z,8.35
2023-03-18T23:37:36.483Z,8.36
2023-03-18T23:40:03.955Z,8.45
2023-03-18T23:42:30.910Z,8.48
2023-03-18T23:44:57.577Z,8.57
2023-03-18T23:47:24.238Z,8.72
2023-03-18T23:49:50.985Z,8.68
2023-03-18T23:52:17.688Z,8.56
2023-03-18T23:54:44.514Z,8.57
2023-03-18T23:57:12.018Z,8.52
2023-03-18T23:59:39.206Z,7.98
